Time;durP1;ratioP1;P1;durP2;ratioP2;P2;SDS_P1;SDS_P2;PMS_P1;PMS_P2;Temp;Humidity;BMP_temperature;BMP_pressure;BME280_temperature;BME280_humidity;BME280_pressure;Samples;Min_cycle;Max_cycle;Signal;HPM_P1;HPM_P2
2022/01/27 00:01:03;;;;;;;;;;;;;;;21.51;36.61;102558.84;7278842;19;153459;-50
2022/01/27 00:03:34;;;;;;;;;;;;;;;21.50;37.01;102565.59;7278009;19;152023;-51
2022/01/27 00:06:07;;;;;;;;;;;;;;;21.47;36.44;102561.38;7278907;19;153523;-51
2022/01/27 00:08:42;;;;;;;;;;;;;;;21.45;36.63;102571.19;7280002;19;153513;-50
2022/01/27 00:11:13;;;;;;;;;;;;;;;21.43;36.58;102553.78;7278858;19;152403;-50
2022/01/27 00:13:47;;;;;;;;;;;;;;;21.41;36.64;102554.03;7278542;19;153748;-50
2022/01/27 00:18:44;;;;;;;;;;;;;;;21.35;36.44;102557.13;7277374;19;154291;-51
2022/01/27 00:21:11;;;;;;;;;;;;;;;21.33;36.76;102553.72;7279197;19;152395;-50
2022/01/27 00:23:40;;;;;;;;;;;;;;;21.30;36.75;102538.25;7281141;19;152135;-51
2022/01/27 00:26:06;;;;;;;;;;;;;;;21.27;36.77;102542.44;7278188;19;153306;-50
2022/01/27 00:28:33;;;;;;;;;;;;;;;21.23;36.87;102546.94;7277640;19;154129;-50
2022/01/27 00:31:00;;;;;;;;;;;;;;;21.22;36.63;102544.38;7275657;19;152304;-50
2022/01/27 00:33:26;;;;;;;;;;;;;;;21.19;36.67;102539.31;7279837;19;152850;-50
2022/01/27 00:35:53;;;;;;;;;;;;;;;21.17;36.70;102547.16;7288076;19;153777;-50
2022/01/27 00:38:20;;;;;;;;;;;;;;;21.14;36.87;102547.72;7278636;19;152060;-50
2022/01/27 00:40:46;;;;;;;;;;;;;;;21.11;36.81;102545.44;7276230;19;154864;-51
2022/01/27 00:43:13;;;;;;;;;;;;;;;21.09;37.27;102553.28;7278063;19;151699;-50
2022/01/27 00:45:40;;;;;;;;;;;;;;;21.07;37.29;102544.31;7278197;19;153283;-51
2022/01/27 00:48:06;;;;;;;;;;;;;;;21.04;37.14;102540.06;7277738;19;152634;-50
2022/01/27 00:50:36;;;;;;;;;;;;;;;21.01;37.45;102540.63;7280141;19;152522;-50
2022/01/27 00:53:06;;;;;;;;;;;;;;;20.98;37.58;102537.50;7284282;19;152753;-51
2022/01/27 00:55:39;;;;;;;;;;;;;;;20.95;37.15;102538.88;7283941;19;153461;-50
2022/01/27 01:00:52;;;;;;;;;;;;;;;20.89;37.87;102533.53;7284148;19;154183;-50
2022/01/27 01:03:27;;;;;;;;;;;;;;;20.84;37.80;102535.19;7285549;19;152355;-52
2022/01/27 01:16:12;;;;;;;;;;;;;;;20.70;38.05;102511.50;7281236;19;154934;-51
2022/01/27 01:21:34;;;;;;;;;;;;;;;20.63;38.14;102504.41;7289911;19;153372;-50
2022/01/27 01:34:45;;;;;;;;;;;;;;;20.45;38.53;102502.91;7282705;19;152928;-54
2022/01/27 01:37:12;;;;;;;;;;;;;;;20.46;38.50;102495.31;7284014;19;153828;-51
2022/01/27 01:39:38;;;;;;;;;;;;;;;20.39;38.28;102496.44;7284541;19;152310;-50
2022/01/27 01:42:08;;;;;;;;;;;;;;;20.37;38.44;102492.19;7282787;19;153472;-50
2022/01/27 01:44:34;;;;;;;;;;;;;;;20.33;38.46;102502.25;7291814;19;153148;-50
2022/01/27 01:47:01;;;;;;;;;;;;;;;20.30;38.50;102494.38;7284471;19;153002;-50
2022/01/27 01:49:28;;;;;;;;;;;;;;;20.27;38.21;102486.44;7278571;19;153801;-50
2022/01/27 01:51:56;;;;;;;;;;;;;;;20.25;38.24;102492.34;7279617;19;152002;-50
2022/01/27 01:54:23;;;;;;;;;;;;;;;20.21;38.45;102488.41;7278320;19;153122;-51
2022/01/27 01:56:50;;;;;;;;;;;;;;;20.18;38.54;102483.31;7278368;19;153469;-51
2022/01/27 01:59:18;;;;;;;;;;;;;;;20.16;38.35;102476.28;7278373;19;152518;-50
2022/01/27 02:01:45;;;;;;;;;;;;;;;20.13;38.27;102471.19;7281698;19;153247;-50
2022/01/27 02:04:12;;;;;;;;;;;;;;;20.12;38.49;102472.31;7282593;19;154093;-51
2022/01/27 02:19:28;;;;;;;;;;;;;;;19.95;38.91;102487.31;7280453;19;152029;-50
2022/01/27 02:21:57;;;;;;;;;;;;;;;19.93;38.45;102481.16;7282551;19;152814;-51
2022/01/27 02:24:25;;;;;;;;;;;;;;;19.89;38.47;102476.34;7280941;19;153699;-51
2022/01/27 02:26:52;;;;;;;;;;;;;;;19.86;39.14;102474.91;7287538;19;151874;-52
2022/01/27 02:29:19;;;;;;;;;;;;;;;19.83;39.14;102463.38;7277722;19;153476;-50
2022/01/27 02:31:46;;;;;;;;;;;;;;;19.83;38.73;102469.81;7277145;19;152694;-50
2022/01/27 02:34:13;;;;;;;;;;;;;;;19.79;38.96;102470.63;7280099;19;153612;-51
2022/01/27 02:36:40;;;;;;;;;;;;;;;19.76;38.95;102460.78;7277590;19;154238;-50
2022/01/27 02:39:07;;;;;;;;;;;;;;;19.74;39.19;102462.16;7280781;19;152071;-51
2022/01/27 02:41:41;;;;;;;;;;;;;;;19.71;39.20;102460.75;7277973;19;152314;-50
2022/01/27 02:44:08;;;;;;;;;;;;;;;19.67;39.10;102453.94;7277051;19;153589;-51
2022/01/27 02:46:39;;;;;;;;;;;;;;;19.64;39.23;102451.69;7279732;19;152538;-50
2022/01/27 02:49:06;;;;;;;;;;;;;;;19.61;39.19;102455.03;7283168;19;153307;-51
2022/01/27 02:51:35;;;;;;;;;;;;;;;19.60;39.07;102458.09;7277410;19;151758;-50
2022/01/27 02:54:01;;;;;;;;;;;;;;;19.56;39.45;102449.38;7277051;19;152343;-51
2022/01/27 02:56:28;;;;;;;;;;;;;;;19.53;39.19;102444.31;7278056;19;154678;-51
2022/01/27 02:58:55;;;;;;;;;;;;;;;19.52;39.30;102445.41;7277812;19;153015;-51
2022/01/27 03:01:22;;;;;;;;;;;;;;;19.49;39.63;102445.91;7279894;19;152802;-50
2022/01/27 03:03:48;;;;;;;;;;;;;;;19.47;39.56;102443.41;7276129;19;153435;-51
2022/01/27 03:06:15;;;;;;;;;;;;;;;19.44;39.14;102448.69;7275622;19;152230;-51
2022/01/27 03:08:42;;;;;;;;;;;;;;;19.40;39.61;102441.88;7279738;19;153484;-51
2022/01/27 03:11:15;;;;;;;;;;;;;;;19.38;39.35;102444.13;7283481;19;154999;-51
2022/01/27 03:13:42;;;;;;;;;;;;;;;19.37;39.68;102442.41;7276035;19;153987;-56
2022/01/27 03:16:09;;;;;;;;;;;;;;;19.34;39.55;102442.94;7277745;19;153968;-52
2022/01/27 03:18:36;;;;;;;;;;;;;;;19.29;39.47;102440.09;7278323;19;152648;-50
2022/01/27 03:21:04;;;;;;;;;;;;;;;19.29;39.37;102429.72;7274851;19;152059;-50
2022/01/27 03:23:33;;;;;;;;;;;;;;;19.27;39.45;102420.72;7277257;19;154113;-50
2022/01/27 03:25:59;;;;;;;;;;;;;;;19.27;39.60;102426.34;7276669;19;152784;-50
2022/01/27 03:28:28;;;;;;;;;;;;;;;19.23;39.89;102436.38;7278361;19;153873;-50
2022/01/27 03:30:55;;;;;;;;;;;;;;;19.22;39.93;102428.22;7272576;19;154613;-51
2022/01/27 03:33:21;;;;;;;;;;;;;;;19.19;39.94;102426.81;7286532;19;152122;-50
2022/01/27 03:35:48;;;;;;;;;;;;;;;19.17;39.97;102440.22;7276638;19;152912;-50
2022/01/27 03:38:15;;;;;;;;;;;;;;;19.16;40.04;102437.72;7277784;19;151885;-50
2022/01/27 03:40:41;;;;;;;;;;;;;;;19.13;40.37;102433.44;7276440;19;153268;-50
2022/01/27 03:43:09;;;;;;;;;;;;;;;19.12;40.39;102426.19;7274595;19;153519;-50
2022/01/27 03:45:36;;;;;;;;;;;;;;;19.10;40.30;102422.78;7275944;19;152284;-50
2022/01/27 03:48:03;;;;;;;;;;;;;;;19.08;40.38;102434.25;7278417;19;155049;-50
2022/01/27 03:50:30;;;;;;;;;;;;;;;19.08;40.51;102428.63;7276116;19;153916;-51
2022/01/27 03:52:56;;;;;;;;;;;;;;;19.06;40.72;102422.47;7274768;19;153764;-52
2022/01/27 03:55:23;;;;;;;;;;;;;;;19.04;40.98;102427.47;7282547;19;153203;-50
2022/01/27 03:57:50;;;;;;;;;;;;;;;19.03;40.85;102424.97;7277166;19;152018;-51
2022/01/27 04:00:16;;;;;;;;;;;;;;;19.02;40.93;102415.72;7275262;19;151980;-50
2022/01/27 04:05:20;;;;;;;;;;;;;;;18.96;41.10;102413.94;7276999;19;152291;-50
2022/01/27 04:07:46;;;;;;;;;;;;;;;18.96;40.84;102413.09;7277256;19;153312;-51
2022/01/27 04:10:13;;;;;;;;;;;;;;;18.91;40.91;102405.47;7275594;19;153980;-51
2022/01/27 04:12:40;;;;;;;;;;;;;;;18.93;41.04;102408.03;7274465;19;152233;-50
2022/01/27 04:15:07;;;;;;;;;;;;;;;18.90;41.14;102395.38;7277595;19;152796;-51
2022/01/27 04:17:34;;;;;;;;;;;;;;;18.88;40.96;102389.22;7283970;19;153089;-51
2022/01/27 04:20:00;;;;;;;;;;;;;;;18.87;41.26;102393.09;7276217;19;152522;-50
2022/01/27 04:22:27;;;;;;;;;;;;;;;18.85;41.18;102392.50;7272724;19;154154;-51
2022/01/27 04:24:54;;;;;;;;;;;;;;;18.85;40.86;102397.28;7278790;19;152031;-50
2022/01/27 04:27:23;;;;;;;;;;;;;;;18.83;41.39;102391.09;7283548;19;153148;-50
2022/01/27 04:29:50;;;;;;;;;;;;;;;18.81;41.09;102387.69;7282516;19;153886;-51
2022/01/27 04:32:23;;;;;;;;;;;;;;;18.79;41.37;102389.94;7279615;19;152557;-51
2022/01/27 04:34:52;;;;;;;;;;;;;;;18.79;41.60;102384.34;7280619;19;152246;-50
2022/01/27 04:37:23;;;;;;;;;;;;;;;18.77;41.39;102384.59;7288733;19;153373;-52
2022/01/27 04:39:59;;;;;;;;;;;;;;;18.75;41.83;102383.16;7280777;19;153406;-52
2022/01/27 04:42:39;;;;;;;;;;;;;;;18.74;41.84;102373.91;7279912;19;153436;-51
2022/01/27 04:45:16;;;;;;;;;;;;;;;18.70;42.01;102372.75;7283683;19;152352;-51
2022/01/27 04:47:51;;;;;;;;;;;;;;;18.70;42.05;102375.56;7285663;19;153613;-50
2022/01/27 04:50:17;;;;;;;;;;;;;;;18.67;42.29;102372.44;7283243;19;154670;-50
2022/01/27 04:52:46;;;;;;;;;;;;;;;18.67;42.54;102356.44;7285307;19;151740;-50
2022/01/27 04:55:15;;;;;;;;;;;;;;;18.66;42.65;102357.59;7283970;19;152815;-50
2022/01/27 04:57:44;;;;;;;;;;;;;;;18.65;42.13;102373.53;7282171;19;153437;-50
2022/01/27 05:00:14;;;;;;;;;;;;;;;18.64;42.40;102370.97;7294106;19;152040;-50
2022/01/27 05:02:44;;;;;;;;;;;;;;;18.63;42.53;102370.13;7282179;19;153048;-50
2022/01/27 05:05:17;;;;;;;;;;;;;;;18.62;42.45;102373.22;7283941;19;152621;-51
2022/01/27 05:07:55;;;;;;;;;;;;;;;18.65;42.70;102364.28;7283784;19;152425;-50
2022/01/27 05:10:26;;;;;;;;;;;;;;;18.67;42.80;102364.84;7285274;19;153336;-51
2022/01/27 05:12:56;;;;;;;;;;;;;;;18.70;43.42;102369.09;7283354;19;152553;-49
2022/01/27 05:15:24;;;;;;;;;;;;;;;18.72;43.21;102364.91;7281970;19;152191;-50
2022/01/27 05:17:51;;;;;;;;;;;;;;;18.75;43.37;102367.22;7284523;19;152898;-50
2022/01/27 05:20:18;;;;;;;;;;;;;;;18.81;43.33;102359.69;7285226;19;151891;-51
2022/01/27 05:22:44;;;;;;;;;;;;;;;18.85;43.67;102347.72;7294575;19;154822;-50
2022/01/27 05:25:11;;;;;;;;;;;;;;;18.90;43.81;102355.31;7287952;19;151932;-50
2022/01/27 05:27:38;;;;;;;;;;;;;;;18.96;43.70;102351.47;7285844;19;151873;-51
2022/01/27 05:30:05;;;;;;;;;;;;;;;19.02;43.74;102368.09;7282045;19;153996;-50
2022/01/27 05:32:34;;;;;;;;;;;;;;;19.08;43.69;102369.81;7281513;19;153012;-49
2022/01/27 05:35:02;;;;;;;;;;;;;;;19.15;43.88;102369.63;7281674;19;153576;-50
2022/01/27 05:37:29;;;;;;;;;;;;;;;19.22;43.84;102360.97;7280845;19;153927;-50
2022/01/27 05:39:55;;;;;;;;;;;;;;;19.28;43.94;102362.72;7283463;19;152118;-55
2022/01/27 05:42:22;;;;;;;;;;;;;;;19.35;43.89;102358.59;7284396;19;154819;-50
2022/01/27 05:44:49;;;;;;;;;;;;;;;19.41;43.66;102359.50;7290991;19;153874;-50
2022/01/27 05:47:15;;;;;;;;;;;;;;;19.47;43.50;102350.91;7284631;19;152597;-50
2022/01/27 05:49:42;;;;;;;;;;;;;;;19.54;43.31;102347.84;7282558;19;153275;-50
2022/01/27 05:52:09;;;;;;;;;;;;;;;19.61;43.35;102348.50;7281302;19;152004;-49
2022/01/27 05:54:36;;;;;;;;;;;;;;;19.67;43.49;102349.38;7282086;19;156558;-50
2022/01/27 05:57:03;;;;;;;;;;;;;;;19.74;43.62;102362.06;7282306;19;153801;-51
2022/01/27 05:59:29;;;;;;;;;;;;;;;19.79;43.25;102364.91;7284732;19;152427;-50
2022/01/27 06:01:56;;;;;;;;;;;;;;;19.87;43.91;102361.59;7283269;19;152735;-50
2022/01/27 06:04:23;;;;;;;;;;;;;;;19.91;43.47;102365.53;7284350;19;153868;-50
2022/01/27 06:06:50;;;;;;;;;;;;;;;19.98;43.33;102365.31;7290060;19;151732;-50
2022/01/27 06:09:16;;;;;;;;;;;;;;;20.03;43.56;102367.31;7282674;19;152251;-50
2022/01/27 06:11:43;;;;;;;;;;;;;;;20.08;43.23;102365.38;7278843;19;152203;-50
2022/01/27 06:14:14;;;;;;;;;;;;;;;20.14;43.28;102374.66;7281295;19;152804;-51
2022/01/27 06:16:41;;;;;;;;;;;;;;;20.22;42.81;102382.56;7282953;19;152585;-51
2022/01/27 06:19:08;;;;;;;;;;;;;;;20.26;42.69;102373.34;7281938;19;152511;-53
2022/01/27 06:21:35;;;;;;;;;;;;;;;20.31;42.73;102373.41;7283868;19;152664;-54
2022/01/27 06:24:02;;;;;;;;;;;;;;;20.36;42.51;102364.16;7282299;19;153430;-51
2022/01/27 06:26:29;;;;;;;;;;;;;;;20.39;42.58;102350.44;7284480;19;152339;-50
2022/01/27 06:28:56;;;;;;;;;;;;;;;20.44;42.15;102349.63;7289783;19;152762;-55
2022/01/27 06:31:23;;;;;;;;;;;;;;;20.49;42.04;102340.38;7280030;19;152470;-51
2022/01/27 06:33:52;;;;;;;;;;;;;;;20.52;42.34;102348.25;7281318;19;152217;-51
2022/01/27 06:36:19;;;;;;;;;;;;;;;20.57;41.99;102354.72;7279531;19;152722;-53
2022/01/27 06:38:46;;;;;;;;;;;;;;;20.62;41.99;102363.19;7280847;19;152061;-50
2022/01/27 06:41:13;;;;;;;;;;;;;;;20.67;41.39;102359.53;7281536;19;152023;-50
2022/01/27 06:43:40;;;;;;;;;;;;;;;20.71;41.88;102360.69;7279723;19;153870;-50
2022/01/27 06:46:07;;;;;;;;;;;;;;;20.74;41.52;102360.97;7284172;19;152429;-50
2022/01/27 06:48:33;;;;;;;;;;;;;;;20.78;41.35;102353.69;7285452;19;153516;-50
2022/01/27 06:51:04;;;;;;;;;;;;;;;20.82;41.67;102354.81;7283659;19;151720;-51
2022/01/27 06:53:31;;;;;;;;;;;;;;;20.86;41.51;102361.56;7278424;19;154023;-50
2022/01/27 06:55:58;;;;;;;;;;;;;;;20.91;41.42;102362.69;7281646;19;154352;-51
2022/01/27 06:58:24;;;;;;;;;;;;;;;20.95;41.17;102355.41;7282541;19;152390;-51
2022/01/27 07:00:51;;;;;;;;;;;;;;;20.98;40.77;102349.25;7282256;19;153377;-53
2022/01/27 07:03:18;;;;;;;;;;;;;;;21.01;40.99;102351.50;7280388;19;153580;-52
2022/01/27 07:05:45;;;;;;;;;;;;;;;21.06;40.95;102366.41;7281187;19;152092;-49
2022/01/27 07:08:12;;;;;;;;;;;;;;;21.09;41.02;102368.66;7283220;19;152728;-50
2022/01/27 07:10:39;;;;;;;;;;;;;;;21.13;41.05;102368.97;7287113;19;153410;-50
2022/01/27 07:13:05;;;;;;;;;;;;;;;21.15;40.91;102369.53;7279011;19;153813;-51
2022/01/27 07:15:32;;;;;;;;;;;;;;;21.18;40.79;102364.19;7279395;19;152519;-50
2022/01/27 07:17:59;;;;;;;;;;;;;;;21.21;41.11;102355.19;7282513;19;151657;-50
2022/01/27 07:20:26;;;;;;;;;;;;;;;21.26;41.19;102366.44;7282857;19;152883;-51
2022/01/27 07:22:53;;;;;;;;;;;;;;;21.34;40.92;102358.59;7278230;19;152833;-56
2022/01/27 07:25:19;;;;;;;;;;;;;;;21.35;40.81;102361.13;7281874;19;151946;-52
2022/01/27 07:27:46;;;;;;;;;;;;;;;21.41;40.52;102370.41;7280540;19;153853;-50
2022/01/27 07:30:13;;;;;;;;;;;;;;;21.43;40.38;102373.81;7279060;19;153336;-51
2022/01/27 07:32:39;;;;;;;;;;;;;;;21.45;39.97;102372.38;7287221;19;153093;-51
2022/01/27 07:35:07;;;;;;;;;;;;;;;21.48;40.19;102377.47;7281251;19;153398;-50
2022/01/27 07:37:33;;;;;;;;;;;;;;;21.50;39.84;102374.34;7281364;19;151987;-51
2022/01/27 07:40:00;;;;;;;;;;;;;;;21.51;39.84;102376.91;7278650;19;153508;-52
2022/01/27 07:42:27;;;;;;;;;;;;;;;21.54;39.37;102369.84;7280329;19;153413;-51
2022/01/27 07:44:53;;;;;;;;;;;;;;;21.56;39.37;102370.44;7282669;19;151809;-51
2022/01/27 07:47:20;;;;;;;;;;;;;;;21.58;39.54;102382.22;7281371;19;153300;-51
2022/01/27 07:49:46;;;;;;;;;;;;;;;21.60;39.18;102378.03;7278879;19;152700;-51
2022/01/27 07:52:13;;;;;;;;;;;;;;;21.64;39.17;102373.53;7279051;19;152084;-50
2022/01/27 07:54:40;;;;;;;;;;;;;;;21.62;39.44;102387.00;7287792;19;153958;-51
2022/01/27 07:57:07;;;;;;;;;;;;;;;21.48;38.62;102377.47;7278832;19;152278;-51
2022/01/27 07:59:33;;;;;;;;;;;;;;;21.48;38.22;102368.19;7279895;19;153500;-51
2022/01/27 08:02:01;;;;;;;;;;;;;;;21.49;38.29;102376.31;7277823;19;152377;-51
2022/01/27 08:04:28;;;;;;;;;;;;;;;21.49;37.94;102376.31;7281139;19;152422;-51
2022/01/27 08:06:56;;;;;;;;;;;;;;;21.51;38.15;102378.88;7280068;19;152642;-51
2022/01/27 08:09:23;;;;;;;;;;;;;;;21.51;38.28;102378.88;7280073;19;153303;-51
2022/01/27 08:11:51;;;;;;;;;;;;;;;21.52;37.95;102378.59;7276986;19;152313;-51
2022/01/27 08:14:17;;;;;;;;;;;;;;;21.52;38.06;102386.19;7279417;19;152828;-51
2022/01/27 08:16:45;;;;;;;;;;;;;;;21.51;38.22;102376.06;7284688;19;154263;-51
2022/01/27 08:19:11;;;;;;;;;;;;;;;21.53;37.81;102371.81;7277697;19;154183;-54
2022/01/27 08:21:38;;;;;;;;;;;;;;;21.53;37.77;102383.06;7278060;19;153323;-52
2022/01/27 08:24:05;;;;;;;;;;;;;;;21.59;38.26;102381.09;7281226;19;151680;-51
2022/01/27 08:26:38;;;;;;;;;;;;;;;21.58;38.11;102379.41;7274305;19;153357;-53
2022/01/27 08:29:11;;;;;;;;;;;;;;;21.64;38.20;102386.75;7278754;19;153267;-52
2022/01/27 08:31:53;;;;;;;;;;;;;;;21.58;38.17;102380.25;7278647;19;152249;-51
2022/01/27 08:34:29;;;;;;;;;;;;;;;21.55;38.31;102391.22;7278369;19;152979;-51
2022/01/27 08:36:56;;;;;;;;;;;;;;;21.52;37.85;102389.84;7275661;19;153838;-51
2022/01/27 08:39:23;;;;;;;;;;;;;;;21.52;38.24;102387.03;7286344;19;152687;-51
2022/01/27 08:41:50;;;;;;;;;;;;;;;21.50;37.90;102389.25;7276755;19;152538;-52
2022/01/27 08:44:17;;;;;;;;;;;;;;;21.50;38.29;102380.81;7276438;19;152118;-51
2022/01/27 08:46:44;;;;;;;;;;;;;;;21.51;38.46;102388.16;7275752;19;152198;-50
2022/01/27 08:49:11;;;;;;;;;;;;;;;21.51;38.19;102392.94;7274558;19;155844;-50
2022/01/27 08:51:38;;;;;;;;;;;;;;;21.50;38.41;102385.59;7275837;19;152226;-50
2022/01/27 08:54:05;;;;;;;;;;;;;;;21.51;38.43;102392.94;7276306;19;152691;-51
2022/01/27 08:56:31;;;;;;;;;;;;;;;21.49;38.11;102387.56;7275426;19;154315;-51
2022/01/27 08:58:58;;;;;;;;;;;;;;;21.48;38.30;102387.88;7284400;19;152027;-52
2022/01/27 09:01:27;;;;;;;;;;;;;;;21.47;38.58;102394.59;7277635;19;153312;-52
2022/01/27 09:03:54;;;;;;;;;;;;;;;21.47;38.68;102391.81;7279865;19;152116;-49
2022/01/27 09:06:21;;;;;;;;;;;;;;;21.45;38.37;102394.88;7279619;19;153622;-49
2022/01/27 09:08:49;;;;;;;;;;;;;;;21.43;38.32;102390.66;7278536;19;154248;-49
2022/01/27 09:11:16;;;;;;;;;;;;;;;21.42;38.46;102389.81;7279264;19;152004;-50
2022/01/27 09:13:43;;;;;;;;;;;;;;;21.41;38.38;102392.91;7282782;19;152849;-49
2022/01/27 09:16:10;;;;;;;;;;;;;;;21.38;38.50;102402.75;7285969;19;153304;-49
2022/01/27 09:18:37;;;;;;;;;;;;;;;21.35;38.62;102406.09;7285648;19;152360;-49
2022/01/27 09:21:09;;;;;;;;;;;;;;;21.34;38.61;102409.22;7294375;19;152765;-49
2022/01/27 09:23:36;;;;;;;;;;;;;;;21.33;38.91;102404.72;7285225;19;152108;-49
2022/01/27 09:26:07;;;;;;;;;;;;;;;21.29;38.80;102416.53;7285212;19;152673;-49
2022/01/27 09:28:34;;;;;;;;;;;;;;;21.27;38.98;102418.75;7283351;19;154073;-48
2022/01/27 09:31:02;;;;;;;;;;;;;;;21.25;38.72;102434.22;7285804;19;152060;-49
2022/01/27 09:33:29;;;;;;;;;;;;;;;21.25;38.86;102431.41;7284111;19;152622;-48
2022/01/27 09:35:55;;;;;;;;;;;;;;;21.22;39.28;102429.97;7286482;19;153416;-49
2022/01/27 09:38:22;;;;;;;;;;;;;;;21.20;39.35;102437.00;7285119;19;152311;-50
2022/01/27 09:40:51;;;;;;;;;;;;;;;21.17;39.40;102438.41;7286286;19;152259;-49
2022/01/27 09:43:19;;;;;;;;;;;;;;;21.15;38.96;102437.84;7293531;19;154620;-49
2022/01/27 09:45:47;;;;;;;;;;;;;;;21.14;39.01;102438.97;7286439;19;152388;-49
2022/01/27 09:48:16;;;;;;;;;;;;;;;21.11;39.36;102430.22;7284947;19;154700;-49
2022/01/27 09:53:15;;;;;;;;;;;;;;;21.05;39.61;102449.00;7284953;19;153871;-49
2022/01/27 09:55:42;;;;;;;;;;;;;;;21.02;39.63;102438.34;7285332;19;156776;-50
2022/01/27 09:58:09;;;;;;;;;;;;;;;20.99;39.73;102444.47;7284479;19;151750;-49
2022/01/27 10:00:36;;;;;;;;;;;;;;;20.98;39.82;102439.16;7284312;19;153402;-49
2022/01/27 10:03:04;;;;;;;;;;;;;;;20.96;40.00;102442.22;7282574;19;153753;-49
2022/01/27 10:05:32;;;;;;;;;;;;;;;20.93;40.08;102437.19;7291735;19;152205;-49
2022/01/27 10:08:01;;;;;;;;;;;;;;;20.92;40.02;102451.50;7284332;19;154244;-49
2022/01/27 10:10:28;;;;;;;;;;;;;;;20.88;40.18;102445.59;7285533;19;151978;-49
2022/01/27 10:12:57;;;;;;;;;;;;;;;20.87;39.98;102452.31;7280914;19;153401;-49
2022/01/27 10:15:24;;;;;;;;;;;;;;;20.84;40.15;102458.50;7284852;19;153693;-49
2022/01/27 10:18:01;;;;;;;;;;;;;;;20.81;40.33;102456.22;7286099;19;152231;-49
2022/01/27 10:20:28;;;;;;;;;;;;;;;20.76;40.64;102461.78;7283670;19;152484;-49
2022/01/27 10:23:08;;;;;;;;;;;;;;;20.75;40.64;102468.56;7280440;19;154087;-49
2022/01/27 10:25:38;;;;;;;;;;;;;;;20.72;40.65;102469.06;7286191;19;151656;-49
2022/01/27 10:28:22;;;;;;;;;;;;;;;20.69;40.29;102461.22;7292423;19;152944;-48
2022/01/27 10:30:58;;;;;;;;;;;;;;;20.64;40.53;102459.22;7285456;19;151841;-49
2022/01/27 10:33:25;;;;;;;;;;;;;;;20.63;40.57;102471.56;7284810;19;151822;-49
2022/01/27 10:35:51;;;;;;;;;;;;;;;20.59;40.63;102475.19;7284874;19;153192;-49
2022/01/27 10:38:18;;;;;;;;;;;;;;;20.57;40.92;102463.41;7284129;19;151704;-48
2022/01/27 10:40:48;;;;;;;;;;;;;;;20.54;41.02;102470.38;7283768;19;152562;-48
2022/01/27 10:43:20;;;;;;;;;;;;;;;20.51;41.11;102476.56;7282474;19;154101;-50
2022/01/27 10:45:56;;;;;;;;;;;;;;;20.49;40.94;102461.94;7286417;19;152270;-50
2022/01/27 10:48:26;;;;;;;;;;;;;;;20.47;41.09;102466.13;7284214;19;153426;-50
2022/01/27 10:51:02;;;;;;;;;;;;;;;20.41;41.49;102466.09;7289576;19;151776;-50
2022/01/27 10:53:39;;;;;;;;;;;;;;;20.42;41.42;102461.34;7283946;19;153007;-49
2022/01/27 10:56:06;;;;;;;;;;;;;;;20.46;41.46;102465.28;7281346;19;154667;-50
2022/01/27 10:58:34;;;;;;;;;;;;;;;20.42;41.25;102469.75;7284845;19;151941;-50
2022/01/27 11:01:03;;;;;;;;;;;;;;;20.42;41.49;102470.59;7285265;19;154471;-57
2022/01/27 11:03:30;;;;;;;;;;;;;;;20.38;41.31;102472.28;7283694;19;152107;-54
2022/01/27 11:06:05;;;;;;;;;;;;;;;20.32;41.28;102469.69;7274895;19;152024;-51
2022/01/27 11:08:33;;;;;;;;;;;;;;;20.26;40.77;102462.31;7277879;19;152821;-51
2022/01/27 11:11:02;;;;;;;;;;;;;;;20.21;41.07;102467.91;7287059;19;154576;-51
2022/01/27 11:13:28;;;;;;;;;;;;;;;20.17;41.02;102467.56;7276868;19;153093;-51
2022/01/27 11:15:55;;;;;;;;;;;;;;;20.14;40.81;102470.91;7280439;19;154177;-50
2022/01/27 11:18:24;;;;;;;;;;;;;;;20.11;41.06;102477.09;7283164;19;151731;-51
2022/01/27 11:20:58;;;;;;;;;;;;;;;20.09;41.02;102470.88;7281639;19;153290;-51
2022/01/27 11:25:56;;;;;;;;;;;;;;;20.00;40.99;102478.09;7279882;19;152447;-51
2022/01/27 11:28:23;;;;;;;;;;;;;;;19.94;41.20;102474.41;7282376;19;153191;-51
2022/01/27 11:31:00;;;;;;;;;;;;;;;19.93;41.00;102475.53;7278842;19;152366;-51
2022/01/27 11:33:37;;;;;;;;;;;;;;;19.92;41.20;102471.03;7287964;19;152321;-51
2022/01/27 11:36:05;;;;;;;;;;;;;;;19.89;41.29;102468.78;7279921;19;153798;-50
2022/01/27 11:38:32;;;;;;;;;;;;;;;19.86;41.18;102472.09;7279634;19;152742;-51
2022/01/27 11:40:58;;;;;;;;;;;;;;;19.82;41.67;102468.13;7280171;19;153379;-51
2022/01/27 11:43:33;;;;;;;;;;;;;;;19.79;41.71;102463.06;7279479;19;153568;-51
2022/01/27 11:46:10;;;;;;;;;;;;;;;19.78;41.67;102461.38;7281196;19;152396;-51
2022/01/27 11:48:36;;;;;;;;;;;;;;;19.75;41.54;102461.91;7278517;19;153780;-55
2022/01/27 11:51:06;;;;;;;;;;;;;;;19.73;41.76;102466.91;7280169;19;152570;-50
2022/01/27 11:53:33;;;;;;;;;;;;;;;19.70;41.47;102461.00;7281304;19;152299;-51
2022/01/27 11:56:02;;;;;;;;;;;;;;;19.68;41.86;102466.88;7286362;19;153160;-51
2022/01/27 11:58:29;;;;;;;;;;;;;;;19.66;41.76;102455.09;7277966;19;152088;-51
2022/01/27 12:01:06;;;;;;;;;;;;;;;19.62;41.63;102451.13;7280336;19;152839;-53
2022/01/27 12:03:34;;;;;;;;;;;;;;;19.62;41.74;102451.13;7279167;19;153251;-54
2022/01/27 12:06:11;;;;;;;;;;;;;;;19.59;42.16;102456.41;7277533;19;152313;-53
2022/01/27 12:08:38;;;;;;;;;;;;;;;19.58;42.00;102463.13;7275106;19;155132;-52
2022/01/27 12:11:27;;;;;;;;;;;;;;;19.55;42.17;102470.09;7276490;19;153496;-52
2022/01/27 12:14:00;;;;;;;;;;;;;;;19.53;41.96;102470.34;7277082;19;152273;-52
2022/01/27 12:16:41;;;;;;;;;;;;;;;19.48;42.39;102467.53;7277435;19;152757;-50
2022/01/27 12:19:09;;;;;;;;;;;;;;;19.48;42.01;102473.13;7284256;19;152575;-57
2022/01/27 12:21:43;;;;;;;;;;;;;;;19.47;42.23;102477.03;7281360;19;153878;-50
2022/01/27 12:24:16;;;;;;;;;;;;;;;19.45;42.25;102489.63;7276743;19;153292;-50
2022/01/27 12:26:46;;;;;;;;;;;;;;;19.43;42.57;102486.22;7278678;19;152076;-50
2022/01/27 12:29:23;;;;;;;;;;;;;;;19.40;42.59;102490.38;7278287;19;152172;-51
2022/01/27 12:31:50;;;;;;;;;;;;;;;19.38;42.53;102492.59;7277310;19;154461;-50
2022/01/27 12:34:17;;;;;;;;;;;;;;;19.38;42.42;102497.38;7280448;19;152210;-50
2022/01/27 12:36:54;;;;;;;;;;;;;;;19.34;42.45;102499.00;7280850;19;151946;-50
2022/01/27 12:39:21;;;;;;;;;;;;;;;19.33;42.64;102491.69;7279454;19;152110;-50
2022/01/27 12:41:49;;;;;;;;;;;;;;;19.32;42.71;102495.59;7286028;19;151657;-50
2022/01/27 12:44:16;;;;;;;;;;;;;;;19.30;42.62;102498.69;7278080;19;154011;-50
2022/01/27 12:46:53;;;;;;;;;;;;;;;19.26;42.84;102491.88;7281718;19;151756;-50
2022/01/27 12:49:29;;;;;;;;;;;;;;;19.25;42.67;102484.63;7287281;19;152380;-49
2022/01/27 12:52:00;;;;;;;;;;;;;;;19.23;42.72;102499.97;7285827;19;153337;-50
2022/01/27 12:54:27;;;;;;;;;;;;;;;19.21;42.87;102505.88;7285343;19;151966;-50
2022/01/27 12:56:54;;;;;;;;;;;;;;;19.19;42.79;102496.84;7284053;19;153523;-50
2022/01/27 12:59:20;;;;;;;;;;;;;;;19.15;43.17;102484.47;7287833;19;155633;-50
2022/01/27 13:01:55;;;;;;;;;;;;;;;19.19;42.72;102496.00;7291329;19;151887;-50
2022/01/27 13:04:24;;;;;;;;;;;;;;;19.21;43.03;102482.59;7284984;19;153504;-50
2022/01/27 13:06:53;;;;;;;;;;;;;;;19.23;43.02;102484.00;7275109;19;152363;-51
2022/01/27 13:09:20;;;;;;;;;;;;;;;19.26;42.64;102477.06;7281065;19;152793;-50
2022/01/27 13:11:49;;;;;;;;;;;;;;;19.31;42.58;102477.09;7278791;19;152787;-50
2022/01/27 13:14:18;;;;;;;;;;;;;;;19.34;43.12;102473.78;7280897;19;151944;-50
2022/01/27 13:16:51;;;;;;;;;;;;;;;19.38;42.81;102473.00;7284794;19;153552;-50
2022/01/27 13:21:51;;;;;;;;;;;;;;;19.52;42.90;102468.69;7282772;19;152066;-51
2022/01/27 13:24:44;;;;;;;;;;;;;;;19.63;42.82;102472.41;7288454;19;151822;-50
2022/01/27 13:27:12;;;;;;;;;;;;;;;19.69;42.44;102465.75;7284590;19;152109;-52